createdAt,value
2024-01-09T00:02:37.041Z,8.00
2024-01-09T00:07:40.439Z,3.55
2024-01-09T00:12:42.547Z,23.83
2024-01-09T00:17:44.915Z,20.42
2024-01-09T00:22:48.797Z,28.00
2024-01-09T00:27:50.966Z,16.80
2024-01-09T00:32:53.275Z,17.55
2024-01-09T00:37:56.806Z,8.65
2024-01-09T00:42:58.836Z,13.68
2024-01-09T00:48:01.028Z,21.40
2024-01-09T00:53:06.052Z,12.65
2024-01-09T00:58:08.163Z,22.35
2024-01-09T01:03:10.244Z,24.20
2024-01-09T01:08:13.706Z,13.70
2024-01-09T01:13:15.766Z,15.77
2024-01-09T01:18:17.958Z,17.02
2024-01-09T01:23:21.666Z,2.80
2024-01-09T01:28:23.798Z,3.30
2024-01-09T01:33:26.098Z,10.70
2024-01-09T01:38:29.744Z,12.20
2024-01-09T01:43:31.870Z,11.38
2024-01-09T01:48:35.292Z,40.63
2024-01-09T01:53:39.283Z,10.45
2024-01-09T01:58:41.866Z,8.88
2024-01-09T02:03:44.097Z,7.78
2024-01-09T02:08:48.586Z,5.88
2024-01-09T02:13:50.750Z,1.17
2024-01-09T02:18:52.985Z,5.18
2024-01-09T02:23:56.492Z,5.57
2024-01-09T02:29:05.153Z,10.60
2024-01-09T02:34:11.204Z,38.33
2024-01-09T02:39:13.603Z,3.17
2024-01-09T02:44:15.962Z,4.20
2024-01-09T02:49:19.530Z,8.88
2024-01-09T02:54:21.614Z,5.60
2024-01-09T02:59:25.814Z,13.63
2024-01-09T03:04:29.376Z,10.77
2024-01-09T03:09:34.480Z,8.57
2024-01-09T03:14:37.657Z,7.60
2024-01-09T03:19:41.250Z,1.88
2024-01-09T03:24:43.283Z,11.10
2024-01-09T03:29:45.368Z,1.95
2024-01-09T03:34:48.767Z,4.07
2024-01-09T03:39:50.804Z,8.00
2024-01-09T03:44:52.843Z,3.80
2024-01-09T03:49:56.305Z,3.05
2024-01-09T03:54:58.361Z,23.70
2024-01-09T04:00:00.458Z,3.58
2024-01-09T04:05:04.361Z,6.65
2024-01-09T04:10:07.162Z,10.73
2024-01-09T04:15:10.093Z,2.50
2024-01-09T04:20:14.262Z,5.95
2024-01-09T04:25:16.512Z,24.02
2024-01-09T04:30:18.581Z,17.77
2024-01-09T04:35:22.087Z,19.10
2024-01-09T04:40:24.142Z,11.90
2024-01-09T04:45:26.260Z,9.63
2024-01-09T04:50:29.747Z,3.10
2024-01-09T04:55:31.927Z,1.33
2024-01-09T05:00:34.018Z,6.47
2024-01-09T05:05:37.672Z,6.07
2024-01-09T05:10:40.025Z,1.55
2024-01-09T05:15:42.109Z,25.98
2024-01-09T05:20:45.584Z,16.33
2024-01-09T05:25:48.053Z,9.27
2024-01-09T05:30:50.318Z,4.68
2024-01-09T05:35:53.780Z,3.10
2024-01-09T05:40:55.871Z,1.05
2024-01-09T05:45:57.917Z,3.22
2024-01-09T05:51:01.377Z,0.65
2024-01-09T05:56:04.145Z,5.05
2024-01-09T06:01:06.220Z,3.42
2024-01-09T06:06:09.738Z,8.98
2024-01-09T06:11:11.901Z,8.50
2024-01-09T06:16:13.986Z,6.50
2024-01-09T06:21:18.433Z,2.05
2024-01-09T06:28:44.697Z,5.57
2024-01-09T06:33:46.924Z,16.38
2024-01-09T06:38:49.259Z,0.95
2024-01-09T06:43:52.782Z,5.72
2024-01-09T06:48:54.938Z,20.17
2024-01-09T06:53:57.122Z,3.40
2024-01-09T06:59:00.639Z,1.85
2024-01-09T07:04:03.037Z,7.43
2024-01-09T07:09:05.247Z,21.80
2024-01-09T07:14:11.264Z,2.20
2024-01-09T07:19:13.601Z,51.70
2024-01-09T07:24:16.208Z,14.20
2024-01-09T07:29:20.681Z,11.55
2024-01-09T07:34:22.899Z,13.13
2024-01-09T07:39:25.194Z,14.98
2024-01-09T07:44:28.652Z,50.85
2024-01-09T07:49:31.328Z,31.60
2024-01-09T07:54:33.595Z,19.83
2024-01-09T07:59:37.138Z,42.55
2024-01-09T08:04:40.516Z,28.60
2024-01-09T08:09:42.587Z,9.38
2024-01-09T08:14:46.161Z,12.70
2024-01-09T08:19:48.362Z,32.08
2024-01-09T08:24:50.474Z,9.52
2024-01-09T08:29:53.929Z,17.77
2024-01-09T08:34:56.983Z,21.88
2024-01-09T08:39:59.491Z,13.88
2024-01-09T08:45:03.104Z,12.23
2024-01-09T08:50:06.147Z,9.13
2024-01-09T08:55:08.673Z,28.38
2024-01-09T09:00:14.409Z,58.58
2024-01-09T09:05:16.567Z,13.52
2024-01-09T09:10:18.671Z,39.13
2024-01-09T09:15:22.064Z,37.10
2024-01-09T09:20:24.226Z,59.17
2024-01-09T09:25:26.289Z,41.08
2024-01-09T09:30:29.841Z,30.73
2024-01-09T09:35:32.563Z,41.30
2024-01-09T09:40:34.946Z,42.78
2024-01-09T09:45:39.322Z,58.50
2024-01-09T09:50:43.334Z,10.75
2024-01-09T09:55:46.921Z,22.75
2024-01-09T10:00:52.967Z,53.55
2024-01-09T10:05:56.954Z,45.10
2024-01-09T10:10:59.139Z,58.58
2024-01-09T10:16:03.977Z,18.85
2024-01-09T10:21:06.569Z,78.22
2024-01-09T10:26:11.180Z,42.78
2024-01-09T10:31:14.641Z,71.65
2024-01-09T10:36:17.199Z,26.92
2024-01-09T10:41:22.590Z,36.75
2024-01-09T10:46:27.994Z,13.95
2024-01-09T10:51:31.366Z,19.42
2024-01-09T10:56:35.195Z,45.33
2024-01-09T11:01:38.648Z,17.75
2024-01-09T11:06:46.106Z,32.50
2024-01-09T11:11:50.349Z,19.65
2024-01-09T11:16:55.284Z,74.35
2024-01-09T11:21:57.489Z,51.47
2024-01-09T11:27:13.533Z,30.65
2024-01-09T11:32:18.281Z,9.73
2024-01-09T11:37:23.145Z,39.13
2024-01-09T11:42:26.495Z,51.03
2024-01-09T11:47:30.382Z,24.88
2024-01-09T11:52:32.883Z,13.75
2024-01-09T11:57:35.206Z,14.52
2024-01-09T12:02:39.079Z,26.85
2024-01-09T12:07:41.760Z,41.15
2024-01-09T12:12:43.814Z,42.78
2024-01-09T12:17:57.305Z,49.05
2024-01-09T12:22:59.890Z,19.15
2024-01-09T12:28:03.374Z,15.43
2024-01-09T12:33:07.093Z,28.45
2024-01-09T12:38:09.608Z,20.20
2024-01-09T12:43:12.291Z,16.58
2024-01-09T12:48:16.148Z,13.82
2024-01-09T12:53:18.381Z,25.58
2024-01-09T12:58:20.536Z,22.48
2024-01-09T13:03:24.129Z,33.88
2024-01-09T13:08:26.339Z,13.40
2024-01-09T13:13:28.459Z,18.27
2024-01-09T13:18:32.112Z,19.90
2024-01-09T13:30:42.773Z,11.00
2024-01-09T13:34:04.479Z,12.90
2024-01-09T13:39:10.929Z,15.35
2024-01-09T13:44:13.389Z,26.92
2024-01-09T13:49:16.934Z,26.92
2024-01-09T13:54:19.113Z,16.83
2024-01-09T13:59:22.680Z,16.02
2024-01-09T14:04:26.253Z,15.93
2024-01-09T14:09:28.370Z,20.00
2024-01-09T14:14:30.424Z,12.23
2024-01-09T14:19:34.881Z,5.68
2024-01-09T14:24:37.920Z,8.90
2024-01-09T14:29:40.022Z,11.18
2024-01-09T14:34:43.712Z,9.85
2024-01-09T14:39:45.858Z,4.72
2024-01-09T14:44:48.061Z,5.00
2024-01-09T14:49:51.656Z,6.35
2024-01-09T14:55:09.905Z,13.82
2024-01-09T15:00:12.829Z,13.52
2024-01-09T15:05:20.622Z,9.35
2024-01-09T15:10:22.786Z,8.40
2024-01-09T15:15:24.945Z,6.10
2024-01-09T15:20:28.397Z,3.50
2024-01-09T15:25:30.544Z,5.05
2024-01-09T15:30:32.811Z,4.72
2024-01-09T15:35:36.736Z,8.57
2024-01-09T15:40:38.893Z,1.00
2024-01-09T15:45:43.146Z,5.32
2024-01-09T15:50:46.584Z,3.17
2024-01-09T15:55:48.754Z,4.63
2024-01-09T16:00:50.860Z,5.18
2024-01-09T16:05:55.031Z,5.25
2024-01-09T16:10:57.172Z,8.25
2024-01-09T16:16:04.259Z,2.45
2024-01-09T16:21:07.744Z,2.15
2024-01-09T16:26:10.402Z,1.58
2024-01-09T16:31:12.916Z,12.13
2024-01-09T16:36:16.555Z,1.35
2024-01-09T16:41:20.190Z,3.75
2024-01-09T16:46:22.304Z,10.55
2024-01-09T16:51:25.956Z,3.15
2024-01-09T16:56:28.365Z,3.03
2024-01-09T17:01:31.133Z,2.03
2024-01-09T17:06:34.570Z,2.38
2024-01-09T17:11:39.759Z,1.85
2024-01-09T17:16:45.868Z,6.43
2024-01-09T17:21:49.344Z,3.17
2024-01-09T17:26:51.490Z,2.38
2024-01-09T17:31:53.655Z,5.88
2024-01-09T17:36:57.112Z,4.47
2024-01-09T17:41:59.211Z,4.20
2024-01-09T17:47:01.355Z,1.55
2024-01-09T17:52:05.326Z,4.68
2024-01-09T17:57:07.515Z,1.45
2024-01-09T18:02:09.697Z,2.63
2024-01-09T18:07:13.166Z,2.53
2024-01-09T18:12:15.542Z,12.38
2024-01-09T18:17:17.793Z,1.83
2024-01-09T18:22:21.200Z,3.33
2024-01-09T18:27:23.792Z,1.85
2024-01-09T18:32:30.792Z,2.42
2024-01-09T18:37:36.577Z,2.00
2024-01-09T18:42:39.013Z,2.97
2024-01-09T18:47:41.815Z,1.02
2024-01-09T18:52:45.334Z,3.00
2024-01-09T18:57:47.507Z,2.10
2024-01-09T19:02:49.601Z,1.90
2024-01-09T19:07:53.265Z,4.57
2024-01-09T19:12:55.407Z,6.20
2024-01-09T19:17:58.490Z,0.55
2024-01-09T19:23:02.146Z,5.25
2024-01-09T19:28:04.925Z,2.55
2024-01-09T19:33:07.129Z,1.83
2024-01-09T19:38:11.882Z,3.10
2024-01-09T19:43:14.909Z,2.80
2024-01-09T19:48:21.597Z,1.80
2024-01-09T19:53:25.463Z,2.92
2024-01-09T19:58:27.636Z,3.80
2024-01-09T20:03:29.790Z,2.03
2024-01-09T20:08:33.615Z,2.85
2024-01-09T20:13:35.777Z,0.65
2024-01-09T20:18:37.914Z,1.25
2024-01-09T20:23:41.502Z,4.10
2024-01-09T20:28:43.570Z,4.95
2024-01-09T20:33:45.826Z,0.70
2024-01-09T20:38:49.317Z,2.35
2024-01-09T20:43:51.518Z,1.85
2024-01-09T20:48:53.635Z,0.50
2024-01-09T20:53:58.580Z,1.67
2024-01-09T20:59:00.805Z,1.58
2024-01-09T21:04:05.469Z,0.80
2024-01-09T21:09:12.526Z,0.95
2024-01-09T21:14:14.769Z,1.95
2024-01-09T21:19:17.863Z,1.85
2024-01-09T21:24:21.404Z,1.02
2024-01-09T21:29:23.517Z,1.73
2024-01-09T21:34:25.653Z,0.32
2024-01-09T21:39:29.077Z,0.65
2024-01-09T21:44:31.959Z,0.30
2024-01-09T21:49:34.022Z,0.50
2024-01-09T21:54:41.530Z,3.63
2024-01-09T21:59:43.725Z,0.38
2024-01-09T22:04:45.795Z,3.33
2024-01-09T22:09:49.291Z,1.00
2024-01-09T22:14:51.344Z,4.05
2024-01-09T22:19:53.451Z,0.20
2024-01-09T22:24:57.555Z,0.82
2024-01-09T22:29:59.754Z,0.35
2024-01-09T22:35:01.945Z,4.70
2024-01-09T22:40:07.412Z,0.75
2024-01-09T22:45:09.986Z,0.30
2024-01-09T22:50:12.186Z,0.40
2024-01-09T22:55:15.850Z,1.13
2024-01-09T23:00:28.014Z,4.35
2024-01-09T23:05:30.464Z,0.30
2024-01-09T23:10:34.080Z,0.40
2024-01-09T23:15:36.248Z,1.23
2024-01-09T23:20:38.475Z,0.20
2024-01-09T23:25:41.955Z,1.75
2024-01-09T23:30:44.249Z,0.05
2024-01-09T23:35:46.330Z,1.20
2024-01-09T23:40:49.856Z,3.10
2024-01-09T23:45:52.102Z,0.52
2024-01-09T23:50:55.651Z,5.10
2024-01-09T23:55:59.185Z,0.68
